createdAt,value
2022-10-03T00:02:07.712Z,12.75
2022-10-03T00:07:24.322Z,12.77
2022-10-03T00:12:49.272Z,12.78
2022-10-03T00:18:20.654Z,12.81
2022-10-03T00:23:36.975Z,12.85
2022-10-03T00:28:44.140Z,12.67
2022-10-03T00:34:04.418Z,12.59
2022-10-03T00:39:31.462Z,12.45
2022-10-03T00:45:02.231Z,12.51
2022-10-03T00:50:31.879Z,12.47
2022-10-03T00:56:08.454Z,12.38
2022-10-03T01:01:46.443Z,12.45
2022-10-03T01:07:08.690Z,12.36
2022-10-03T01:12:15.669Z,12.43
2022-10-03T01:17:47.302Z,12.45
2022-10-03T01:23:02.318Z,12.44
2022-10-03T01:28:48.134Z,12.36
2022-10-03T01:34:13.030Z,12.33
2022-10-03T01:39:42.916Z,12.30
2022-10-03T01:44:44.144Z,12.31
2022-10-03T01:50:05.376Z,12.31
2022-10-03T01:55:32.698Z,12.18
2022-10-03T02:01:01.361Z,12.02
2022-10-03T02:06:08.935Z,11.96
2022-10-03T02:11:11.488Z,11.96
2022-10-03T02:16:39.306Z,11.88
2022-10-03T02:21:53.921Z,11.98
2022-10-03T02:27:13.439Z,12.06
2022-10-03T02:32:29.759Z,12.10
2022-10-03T02:37:46.497Z,12.13
2022-10-03T02:43:18.746Z,12.14
2022-10-03T02:48:48.186Z,12.12
2022-10-03T02:54:23.965Z,12.17
2022-10-03T02:59:49.559Z,12.12
2022-10-03T03:04:59.625Z,12.25
2022-10-03T03:10:19.194Z,12.09
2022-10-03T03:15:20.418Z,12.17
2022-10-03T03:20:54.268Z,12.22
2022-10-03T03:26:30.619Z,12.27
2022-10-03T03:31:49.970Z,12.23
2022-10-03T03:37:00.747Z,12.23
2022-10-03T03:42:01.934Z,12.17
2022-10-03T03:47:21.320Z,12.10
2022-10-03T03:52:35.551Z,12.11
2022-10-03T03:57:52.061Z,12.08
2022-10-03T04:03:07.455Z,11.91
2022-10-03T04:08:12.074Z,12.01
2022-10-03T04:13:22.529Z,12.06
2022-10-03T04:18:58.176Z,12.11
2022-10-03T04:24:21.805Z,12.06
2022-10-03T04:29:43.427Z,12.10
2022-10-03T04:35:09.334Z,12.13
2022-10-03T04:40:45.288Z,12.12
2022-10-03T04:46:40.378Z,12.26
2022-10-03T04:52:03.132Z,12.22
2022-10-03T04:57:35.111Z,12.12
2022-10-03T05:02:52.913Z,12.28
2022-10-03T05:08:23.370Z,12.40
2022-10-03T05:14:03.490Z,12.36
2022-10-03T05:19:36.504Z,12.44
2022-10-03T05:24:58.074Z,12.42
2022-10-03T05:30:08.742Z,12.50
2022-10-03T05:35:19.738Z,12.43
2022-10-03T05:40:24.927Z,12.46
2022-10-03T05:46:02.819Z,12.46
2022-10-03T05:51:39.571Z,12.45
2022-10-03T05:56:53.541Z,12.41
2022-10-03T06:02:00.890Z,12.40
2022-10-03T06:07:23.477Z,12.42
2022-10-03T06:12:54.206Z,12.55
2022-10-03T06:18:08.420Z,12.58
2022-10-03T06:23:37.178Z,12.75
2022-10-03T06:28:51.163Z,12.75
2022-10-03T06:34:28.367Z,12.72
2022-10-03T06:39:51.681Z,12.79
2022-10-03T06:45:13.898Z,12.77
2022-10-03T06:50:36.154Z,12.74
2022-10-03T06:55:52.537Z,12.81
2022-10-03T07:01:04.133Z,12.80
2022-10-03T07:06:20.649Z,12.80
2022-10-03T07:11:57.780Z,12.77
2022-10-03T07:17:23.086Z,12.75
2022-10-03T07:22:47.952Z,12.84
2022-10-03T07:28:15.058Z,13.20
2022-10-03T07:33:29.588Z,13.56
2022-10-03T07:38:58.790Z,13.77
2022-10-03T07:44:09.870Z,13.99
2022-10-03T07:49:34.986Z,14.12
2022-10-03T07:54:54.125Z,14.40
2022-10-03T08:00:17.538Z,14.63
2022-10-03T08:05:56.349Z,14.88
2022-10-03T08:11:22.627Z,15.17
2022-10-03T08:16:31.551Z,15.42
2022-10-03T08:21:51.002Z,15.35
2022-10-03T08:26:55.225Z,15.84
2022-10-03T08:32:15.234Z,16.02
2022-10-03T08:37:52.221Z,16.29
2022-10-03T08:43:32.808Z,16.49
2022-10-03T08:48:56.640Z,16.33
2022-10-03T08:54:08.623Z,16.93
2022-10-03T08:59:31.055Z,17.48
2022-10-03T09:05:26.613Z,18.07
2022-10-03T09:10:55.669Z,18.00
2022-10-03T09:16:29.957Z,19.24
2022-10-03T09:22:17.141Z,19.85
2022-10-03T09:27:37.385Z,20.29
2022-10-03T09:32:56.932Z,19.00
2022-10-03T09:38:22.945Z,17.97
2022-10-03T09:43:42.960Z,17.92
2022-10-03T09:49:09.198Z,17.76
2022-10-03T09:54:23.349Z,17.89
2022-10-03T09:59:27.441Z,18.08
2022-10-03T10:04:56.552Z,17.87
2022-10-03T10:10:16.275Z,19.60
2022-10-03T10:15:36.410Z,18.85
2022-10-03T10:21:08.850Z,18.22
2022-10-03T10:26:48.806Z,17.96
2022-10-03T10:32:17.870Z,19.40
2022-10-03T10:37:58.230Z,20.90
2022-10-03T10:43:26.774Z,20.76
2022-10-03T10:48:52.816Z,20.45
2022-10-03T10:54:06.336Z,19.45
2022-10-03T10:59:46.697Z,19.59
2022-10-03T11:05:29.948Z,21.42
2022-10-03T11:10:39.531Z,21.24
2022-10-03T11:15:54.210Z,21.17
2022-10-03T11:21:35.105Z,21.29
2022-10-03T11:27:10.384Z,24.52
2022-10-03T11:32:42.807Z,26.81
2022-10-03T11:37:57.396Z,31.21
2022-10-03T11:43:27.548Z,35.37
2022-10-03T11:48:39.577Z,37.22
2022-10-03T11:53:43.902Z,33.70
2022-10-03T11:59:26.785Z,31.28
2022-10-03T12:04:42.114Z,26.92
2022-10-03T12:10:14.893Z,24.31
2022-10-03T12:15:44.239Z,23.03
2022-10-03T12:21:11.450Z,21.84
2022-10-03T12:26:19.847Z,20.97
2022-10-03T12:31:39.987Z,20.34
2022-10-03T12:36:53.203Z,20.00
2022-10-03T12:42:23.024Z,19.82
2022-10-03T12:47:54.493Z,19.60
2022-10-03T12:53:15.025Z,19.55
2022-10-03T12:58:34.289Z,19.49
2022-10-03T13:03:52.127Z,19.58
2022-10-03T13:09:11.752Z,19.46
2022-10-03T13:14:41.314Z,19.14
2022-10-03T13:19:58.207Z,18.93
2022-10-03T13:25:21.731Z,18.64
2022-10-03T13:30:32.499Z,18.51
2022-10-03T13:36:01.460Z,18.46
2022-10-03T13:41:15.431Z,18.36
2022-10-03T13:46:25.045Z,18.41
2022-10-03T13:51:39.836Z,18.29
2022-10-03T13:56:45.292Z,18.25
2022-10-03T14:02:00.246Z,18.32
2022-10-03T14:07:18.092Z,18.33
2022-10-03T14:12:51.195Z,18.19
2022-10-03T14:18:12.008Z,18.01
2022-10-03T14:23:25.010Z,17.93
2022-10-03T14:29:01.568Z,17.55
2022-10-03T14:34:35.325Z,17.55
2022-10-03T14:39:56.368Z,17.57
2022-10-03T14:45:03.653Z,17.69
2022-10-03T14:50:06.473Z,17.50
2022-10-03T14:55:18.775Z,17.72
2022-10-03T15:00:45.739Z,17.65
2022-10-03T15:06:10.416Z,17.33
2022-10-03T15:11:16.473Z,17.41
2022-10-03T15:16:21.648Z,17.31
2022-10-03T15:21:26.081Z,17.02
2022-10-03T15:26:32.838Z,17.02
2022-10-03T15:31:39.323Z,16.96
2022-10-03T15:36:45.389Z,16.89
2022-10-03T15:41:55.807Z,16.89
2022-10-03T15:47:04.941Z,16.82
2022-10-03T15:52:20.417Z,16.92
2022-10-03T15:57:27.780Z,16.84
2022-10-03T16:02:39.319Z,16.98
2022-10-03T16:07:50.782Z,16.77
2022-10-03T16:13:00.556Z,16.74
2022-10-03T16:18:09.232Z,16.72
2022-10-03T16:23:21.358Z,16.72
2022-10-03T16:28:30.376Z,16.57
2022-10-03T16:33:36.784Z,16.50
2022-10-03T16:38:46.335Z,16.41
2022-10-03T16:44:24.892Z,16.25
2022-10-03T16:49:44.939Z,16.24
2022-10-03T16:54:47.236Z,16.06
2022-10-03T16:59:51.975Z,16.11
2022-10-03T17:05:01.589Z,16.10
2022-10-03T17:10:03.904Z,16.00
2022-10-03T17:15:08.781Z,16.00
2022-10-03T17:20:22.050Z,15.98
2022-10-03T17:25:51.010Z,15.87
2022-10-03T17:30:59.312Z,15.73
2022-10-03T17:36:22.519Z,15.73
2022-10-03T17:41:39.456Z,15.59
2022-10-03T17:46:50.849Z,15.54
2022-10-03T17:51:55.308Z,15.49
2022-10-03T17:57:05.908Z,15.40
2022-10-03T18:02:21.127Z,15.26
2022-10-03T18:07:26.886Z,15.20
2022-10-03T18:12:30.748Z,15.12
2022-10-03T18:17:51.153Z,15.05
2022-10-03T18:23:10.470Z,15.01
2022-10-03T18:28:32.196Z,14.93
2022-10-03T18:33:50.117Z,14.85
2022-10-03T18:38:58.827Z,14.83
2022-10-03T18:44:01.340Z,14.76
2022-10-03T18:49:34.264Z,14.74
2022-10-03T18:54:59.217Z,14.65
2022-10-03T19:00:15.842Z,14.42
2022-10-03T19:05:50.711Z,14.48
2022-10-03T19:11:01.588Z,14.43
2022-10-03T19:16:46.414Z,14.44
2022-10-03T19:21:48.028Z,14.30
2022-10-03T19:26:55.853Z,14.29
2022-10-03T19:32:22.834Z,14.31
2022-10-03T19:37:41.928Z,14.25
2022-10-03T19:42:54.021Z,14.23
2022-10-03T19:48:08.730Z,14.23
2022-10-03T19:53:14.759Z,14.12
2022-10-03T19:58:23.958Z,13.96
2022-10-03T20:03:31.867Z,13.94
2022-10-03T20:08:44.512Z,13.90
2022-10-03T20:13:48.197Z,13.78
2022-10-03T20:18:53.726Z,13.64
2022-10-03T20:23:57.840Z,13.74
2022-10-03T20:29:10.437Z,13.78
2022-10-03T20:34:20.989Z,13.67
2022-10-03T20:39:31.361Z,13.72
2022-10-03T20:45:01.444Z,13.70
2022-10-03T20:50:12.735Z,13.57
2022-10-03T20:55:31.251Z,13.45
2022-10-03T21:00:41.434Z,13.36
2022-10-03T21:05:57.401Z,13.44
2022-10-03T21:11:02.657Z,13.35
2022-10-03T21:16:17.338Z,13.35
2022-10-03T21:21:43.110Z,13.08
2022-10-03T21:27:10.814Z,12.87
2022-10-03T21:32:47.369Z,12.72
2022-10-03T21:38:29.078Z,12.78
2022-10-03T21:43:50.242Z,12.61
2022-10-03T21:49:06.697Z,12.55
2022-10-03T21:54:53.338Z,12.73
2022-10-03T22:00:13.593Z,12.72
2022-10-03T22:05:37.857Z,12.81
2022-10-03T22:10:46.747Z,12.77
2022-10-03T22:16:04.046Z,12.58
2022-10-03T22:21:18.180Z,12.52
2022-10-03T22:26:24.203Z,12.55
2022-10-03T22:31:59.479Z,12.39
2022-10-03T22:37:02.004Z,12.44
2022-10-03T22:42:05.688Z,12.19
2022-10-03T22:47:16.062Z,12.32
2022-10-03T22:52:25.932Z,12.29
2022-10-03T22:57:28.260Z,12.20
2022-10-03T23:02:48.186Z,12.27
2022-10-03T23:08:02.033Z,12.28
2022-10-03T23:13:10.982Z,12.11
2022-10-03T23:18:15.048Z,12.02
2022-10-03T23:23:24.307Z,12.05
2022-10-03T23:28:37.567Z,11.73
2022-10-03T23:33:38.798Z,11.66
2022-10-03T23:38:40.147Z,11.60
2022-10-03T23:43:44.156Z,11.48
2022-10-03T23:48:58.106Z,11.38
2022-10-03T23:54:03.807Z,11.28
2022-10-03T23:59:05.065Z,11.18
